Time;durP1;ratioP1;P1;durP2;ratioP2;P2;SDS_P1;SDS_P2;PMS_P1;PMS_P2;Temp;Humidity;BMP_temperature;BMP_pressure;BME280_temperature;BME280_humidity;BME280_pressure;Samples;Min_cycle;Max_cycle;Signal;HPM_P1;HPM_P2
2021/12/30 00:00:58;;;;;;;5.07;1.30;;;;;;;;;;5011288;28;20413;-73
2021/12/30 00:03:24;;;;;;;3.90;0.90;;;;;;;;;;5010781;28;20456;-74
2021/12/30 00:05:52;;;;;;;4.20;1.47;;;;;;;;;;5015284;28;20556;-74
2021/12/30 00:08:19;;;;;;;1.40;0.90;;;;;;;;;;5015611;28;20414;-73
2021/12/30 00:10:45;;;;;;;1.87;0.90;;;;;;;;;;5014914;28;20492;-73
2021/12/30 00:13:11;;;;;;;2.40;1.10;;;;;;;;;;5015146;28;20977;-73
2021/12/30 00:15:38;;;;;;;1.30;0.90;;;;;;;;;;5015036;28;20508;-74
2021/12/30 00:18:04;;;;;;;2.00;0.90;;;;;;;;;;5015174;28;20465;-73
2021/12/30 00:20:31;;;;;;;1.63;0.90;;;;;;;;;;5014967;28;20449;-73
2021/12/30 00:23:01;;;;;;;1.50;0.80;;;;;;;;;;5014978;28;20575;-73
2021/12/30 00:25:27;;;;;;;2.33;1.00;;;;;;;;;;5014799;28;20813;-73
2021/12/30 00:27:53;;;;;;;2.80;1.00;;;;;;;;;;5014828;28;20964;-72
2021/12/30 00:30:19;;;;;;;1.97;0.80;;;;;;;;;;5014738;28;20501;-72
2021/12/30 00:32:45;;;;;;;1.30;0.80;;;;;;;;;;5014510;28;20476;-72
2021/12/30 00:35:12;;;;;;;2.70;1.20;;;;;;;;;;5015113;28;20417;-72
2021/12/30 00:37:38;;;;;;;1.20;0.70;;;;;;;;;;5014944;28;20910;-73
2021/12/30 00:40:05;;;;;;;1.40;0.77;;;;;;;;;;5014399;28;20401;-73
2021/12/30 00:42:31;;;;;;;2.13;1.00;;;;;;;;;;5014290;28;20483;-72
2021/12/30 00:44:57;;;;;;;1.47;0.80;;;;;;;;;;5014558;28;20412;-73
2021/12/30 00:47:23;;;;;;;4.03;0.97;;;;;;;;;;5014479;28;20452;-74
2021/12/30 00:49:51;;;;;;;4.77;1.07;;;;;;;;;;5014744;28;20963;-73
2021/12/30 00:52:17;;;;;;;1.20;0.90;;;;;;;;;;5013642;28;20429;-71
2021/12/30 00:54:43;;;;;;;2.63;0.93;;;;;;;;;;5014219;28;20429;-70
2021/12/30 00:57:09;;;;;;;2.40;1.03;;;;;;;;;;5014672;28;20766;-72
2021/12/30 00:59:35;;;;;;;1.60;0.80;;;;;;;;;;5014611;28;20417;-72
2021/12/30 01:02:01;;;;;;;1.87;1.00;;;;;;;;;;5014028;28;20470;-71
2021/12/30 01:04:27;;;;;;;3.63;1.20;;;;;;;;;;5014298;28;20437;-70
2021/12/30 01:06:54;;;;;;;1.20;0.80;;;;;;;;;;5014502;28;20477;-71
2021/12/30 01:09:20;;;;;;;3.43;0.87;;;;;;;;;;5014404;28;20486;-71
2021/12/30 01:11:46;;;;;;;2.40;1.10;;;;;;;;;;5013747;28;20437;-72
2021/12/30 01:14:19;;;;;;;1.60;0.90;;;;;;;;;;5014388;28;21235;-70
2021/12/30 01:16:48;;;;;;;1.10;0.80;;;;;;;;;;5012705;28;20549;-70
2021/12/30 01:21:48;;;;;;;4.50;0.77;;;;;;;;;;5015398;28;20410;-72
2021/12/30 01:24:14;;;;;;;1.60;0.80;;;;;;;;;;5013915;28;20528;-74
2021/12/30 01:26:40;;;;;;;7.63;0.90;;;;;;;;;;5013915;28;20458;-73
2021/12/30 01:29:06;;;;;;;1.30;0.73;;;;;;;;;;5013645;28;20433;-73
2021/12/30 01:31:32;;;;;;;2.30;0.60;;;;;;;;;;5014915;28;20819;-72
2021/12/30 01:33:58;;;;;;;2.07;0.80;;;;;;;;;;5013879;28;20759;-71
2021/12/30 01:36:26;;;;;;;1.37;0.70;;;;;;;;;;5013763;28;20909;-72
2021/12/30 01:38:53;;;;;;;1.13;0.70;;;;;;;;;;5013812;28;20766;-72
2021/12/30 01:41:20;;;;;;;2.00;0.90;;;;;;;;;;5013056;28;20425;-73
2021/12/30 01:43:46;;;;;;;2.30;0.83;;;;;;;;;;5013677;28;20468;-73
2021/12/30 01:46:13;;;;;;;0.97;0.60;;;;;;;;;;5013497;28;20523;-74
2021/12/30 01:48:39;;;;;;;1.00;0.70;;;;;;;;;;5013660;28;20410;-74
2021/12/30 01:51:05;;;;;;;2.47;0.80;;;;;;;;;;5012919;28;20429;-74
2021/12/30 01:53:31;;;;;;;2.03;0.83;;;;;;;;;;5013011;28;20942;-74
2021/12/30 01:55:58;;;;;;;1.50;0.60;;;;;;;;;;5014836;28;20412;-74
2021/12/30 01:58:24;;;;;;;1.47;0.80;;;;;;;;;;5013547;28;20409;-75
2021/12/30 02:00:51;;;;;;;7.43;0.80;;;;;;;;;;5012579;28;20472;-73
2021/12/30 02:03:19;;;;;;;6.03;1.00;;;;;;;;;;5013287;28;20495;-74
2021/12/30 02:05:45;;;;;;;6.50;0.90;;;;;;;;;;5013026;28;20996;-75
2021/12/30 02:08:14;;;;;;;2.83;0.73;;;;;;;;;;5013293;28;20414;-75
2021/12/30 02:10:40;;;;;;;1.10;0.63;;;;;;;;;;5012449;28;20433;-75
2021/12/30 02:13:07;;;;;;;2.80;0.70;;;;;;;;;;5013122;28;20472;-75
2021/12/30 02:15:34;;;;;;;1.23;0.80;;;;;;;;;;5013098;28;20445;-74
2021/12/30 02:18:01;;;;;;;10.17;0.90;;;;;;;;;;5012808;28;20441;-74
2021/12/30 02:20:44;;;;;;;5.07;0.70;;;;;;;;;;5012380;28;20436;-74
2021/12/30 02:23:10;;;;;;;1.83;0.80;;;;;;;;;;5012943;28;20495;-74
2021/12/30 02:25:36;;;;;;;1.20;0.83;;;;;;;;;;5012983;28;20457;-71
2021/12/30 02:28:06;;;;;;;2.80;0.83;;;;;;;;;;5012899;28;20452;-74
2021/12/30 02:30:32;;;;;;;2.50;0.80;;;;;;;;;;5011843;28;20424;-74
2021/12/30 02:32:58;;;;;;;1.90;0.80;;;;;;;;;;5012742;28;20442;-73
2021/12/30 02:35:24;;;;;;;0.90;0.50;;;;;;;;;;5012902;28;20750;-73
2021/12/30 02:37:51;;;;;;;1.17;0.60;;;;;;;;;;5012633;28;20398;-74
2021/12/30 02:40:23;;;;;;;1.33;0.70;;;;;;;;;;5012032;28;20460;-74
2021/12/30 02:42:49;;;;;;;1.20;0.70;;;;;;;;;;5012130;28;20802;-74
2021/12/30 02:45:15;;;;;;;1.40;0.60;;;;;;;;;;5012493;28;20414;-73
2021/12/30 02:47:41;;;;;;;1.93;0.80;;;;;;;;;;5012611;28;20410;-73
2021/12/30 02:50:07;;;;;;;5.70;0.97;;;;;;;;;;5012224;28;20421;-72
2021/12/30 02:52:33;;;;;;;1.30;0.83;;;;;;;;;;5011866;28;20476;-73
2021/12/30 02:54:59;;;;;;;8.43;1.10;;;;;;;;;;5013510;28;20452;-74
2021/12/30 02:57:26;;;;;;;1.00;0.60;;;;;;;;;;5012312;28;20437;-73
2021/12/30 02:59:52;;;;;;;2.50;1.00;;;;;;;;;;5012204;28;20418;-73
2021/12/30 03:02:18;;;;;;;5.13;0.83;;;;;;;;;;5011927;28;20425;-70
2021/12/30 03:04:44;;;;;;;2.60;0.80;;;;;;;;;;5012371;28;20467;-76
2021/12/30 03:07:10;;;;;;;3.07;0.80;;;;;;;;;;5011412;28;20465;-75
2021/12/30 03:09:36;;;;;;;4.73;1.10;;;;;;;;;;5012228;28;21452;-73
2021/12/30 03:12:02;;;;;;;1.90;0.83;;;;;;;;;;5011813;28;20425;-73
2021/12/30 03:14:29;;;;;;;2.20;1.00;;;;;;;;;;5012067;28;20489;-73
2021/12/30 03:16:55;;;;;;;2.43;0.90;;;;;;;;;;5011620;28;20948;-72
2021/12/30 03:19:21;;;;;;;7.53;0.83;;;;;;;;;;5011836;28;20755;-70
2021/12/30 03:21:47;;;;;;;3.67;0.90;;;;;;;;;;5011567;28;20414;-70
2021/12/30 03:24:13;;;;;;;2.53;0.80;;;;;;;;;;5012117;28;20518;-72
2021/12/30 03:26:40;;;;;;;2.10;0.60;;;;;;;;;;5011709;28;21175;-70
2021/12/30 03:29:06;;;;;;;1.53;0.80;;;;;;;;;;5011878;28;20417;-72
2021/12/30 03:31:32;;;;;;;5.53;1.03;;;;;;;;;;5011289;28;20405;-71
2021/12/30 03:33:58;;;;;;;3.83;1.10;;;;;;;;;;5012026;28;20451;-72
2021/12/30 03:36:25;;;;;;;4.10;0.80;;;;;;;;;;5011719;28;20484;-70
2021/12/30 03:38:53;;;;;;;3.63;0.70;;;;;;;;;;5011691;28;20418;-71
2021/12/30 03:41:22;;;;;;;2.03;0.70;;;;;;;;;;5011631;28;20413;-71
2021/12/30 03:43:48;;;;;;;4.57;0.80;;;;;;;;;;5011247;28;20487;-72
2021/12/30 03:46:15;;;;;;;10.60;0.70;;;;;;;;;;5011380;28;20498;-73
2021/12/30 03:48:43;;;;;;;13.70;0.97;;;;;;;;;;5011762;28;20467;-72
2021/12/30 03:51:12;;;;;;;2.80;0.70;;;;;;;;;;5011174;28;20453;-73
2021/12/30 03:53:39;;;;;;;2.90;0.80;;;;;;;;;;5011599;28;20816;-73
2021/12/30 03:56:06;;;;;;;8.80;1.00;;;;;;;;;;5011221;28;20425;-73
2021/12/30 03:58:32;;;;;;;5.47;1.00;;;;;;;;;;5011365;28;20914;-73
2021/12/30 04:00:59;;;;;;;8.07;0.90;;;;;;;;;;5011424;28;20449;-73
2021/12/30 04:03:25;;;;;;;6.77;1.63;;;;;;;;;;5011584;28;20461;-72
2021/12/30 04:05:51;;;;;;;10.50;0.80;;;;;;;;;;5011307;28;20468;-74
2021/12/30 04:08:17;;;;;;;4.83;0.80;;;;;;;;;;5011484;28;20425;-71
2021/12/30 04:10:43;;;;;;;8.47;0.90;;;;;;;;;;5011142;28;20449;-72
2021/12/30 04:13:09;;;;;;;3.00;0.97;;;;;;;;;;5011302;28;20437;-73
2021/12/30 04:15:35;;;;;;;1.10;0.60;;;;;;;;;;5011542;28;20492;-72
2021/12/30 04:18:01;;;;;;;6.87;0.70;;;;;;;;;;5011452;28;20418;-73
2021/12/30 04:20:27;;;;;;;10.57;0.87;;;;;;;;;;5010743;28;20504;-73
2021/12/30 04:22:53;;;;;;;24.13;1.20;;;;;;;;;;5011486;28;20437;-73
2021/12/30 04:25:19;;;;;;;1.07;0.70;;;;;;;;;;5011357;28;20460;-72
2021/12/30 04:27:45;;;;;;;3.37;1.13;;;;;;;;;;5011414;28;20417;-69
2021/12/30 04:30:12;;;;;;;1.77;0.67;;;;;;;;;;5011177;28;20894;-70
2021/12/30 04:32:38;;;;;;;1.20;0.60;;;;;;;;;;5011106;28;20429;-73
2021/12/30 04:35:05;;;;;;;2.90;0.80;;;;;;;;;;5011070;28;20414;-74
2021/12/30 04:37:31;;;;;;;5.20;0.83;;;;;;;;;;5011475;28;20433;-71
2021/12/30 04:39:57;;;;;;;22.53;1.20;;;;;;;;;;5011217;28;20910;-72
2021/12/30 04:42:23;;;;;;;2.93;0.70;;;;;;;;;;5010842;28;20413;-72
2021/12/30 04:44:49;;;;;;;11.63;0.90;;;;;;;;;;5011198;28;20409;-72
2021/12/30 04:47:16;;;;;;;1.20;0.70;;;;;;;;;;5011209;28;20465;-71
2021/12/30 04:49:42;;;;;;;11.50;0.80;;;;;;;;;;5010997;28;20422;-73
2021/12/30 04:52:08;;;;;;;7.20;0.87;;;;;;;;;;5013013;28;20913;-72
2021/12/30 04:54:34;;;;;;;4.30;0.90;;;;;;;;;;5014757;28;20429;-73
2021/12/30 04:57:00;;;;;;;2.20;0.77;;;;;;;;;;5013989;28;20459;-73
2021/12/30 04:59:26;;;;;;;1.70;0.70;;;;;;;;;;5015851;28;20422;-73
2021/12/30 05:01:52;;;;;;;4.50;0.70;;;;;;;;;;5014188;28;20418;-73
2021/12/30 05:04:18;;;;;;;5.60;0.77;;;;;;;;;;5014230;28;20442;-73
2021/12/30 05:06:44;;;;;;;2.23;1.23;;;;;;;;;;5015555;28;20818;-73
2021/12/30 05:09:10;;;;;;;3.83;0.93;;;;;;;;;;5014211;28;20406;-73
2021/12/30 05:11:40;;;;;;;1.30;0.60;;;;;;;;;;5013915;28;20429;-73
2021/12/30 05:14:06;;;;;;;7.30;0.83;;;;;;;;;;5013836;28;20477;-73
2021/12/30 05:16:32;;;;;;;2.90;0.60;;;;;;;;;;5014343;28;20449;-73
2021/12/30 05:18:58;;;;;;;2.30;0.70;;;;;;;;;;5014015;28;20464;-73
2021/12/30 05:21:25;;;;;;;1.60;0.70;;;;;;;;;;5013380;28;20422;-72
2021/12/30 05:23:51;;;;;;;1.63;0.70;;;;;;;;;;5015452;28;20421;-73
2021/12/30 05:26:18;;;;;;;4.20;0.70;;;;;;;;;;5014093;28;20461;-73
2021/12/30 05:28:44;;;;;;;1.07;0.67;;;;;;;;;;5013638;28;20429;-74
2021/12/30 05:31:10;;;;;;;3.60;0.70;;;;;;;;;;5013593;28;20758;-74
2021/12/30 05:33:36;;;;;;;2.90;1.10;;;;;;;;;;5013331;28;20448;-77
2021/12/30 05:36:02;;;;;;;1.87;0.70;;;;;;;;;;5013728;28;20417;-72
2021/12/30 05:38:28;;;;;;;1.70;0.67;;;;;;;;;;5013703;28;20814;-72
2021/12/30 05:40:54;;;;;;;1.63;0.70;;;;;;;;;;5013488;28;20410;-72
2021/12/30 05:43:20;;;;;;;2.90;0.63;;;;;;;;;;5013525;28;20813;-72
2021/12/30 05:45:46;;;;;;;3.80;0.70;;;;;;;;;;5014843;28;20480;-72
2021/12/30 05:48:12;;;;;;;2.73;0.90;;;;;;;;;;5013299;28;20813;-73
2021/12/30 05:50:38;;;;;;;4.53;0.70;;;;;;;;;;5012799;28;20905;-73
2021/12/30 05:53:04;;;;;;;3.80;0.70;;;;;;;;;;5013449;28;20436;-73
2021/12/30 05:55:31;;;;;;;5.07;1.20;;;;;;;;;;5013649;28;20413;-73
2021/12/30 05:57:58;;;;;;;3.00;0.80;;;;;;;;;;5012806;28;20422;-73
2021/12/30 06:00:25;;;;;;;1.80;0.90;;;;;;;;;;5013084;28;20405;-73
2021/12/30 06:02:51;;;;;;;4.03;1.07;;;;;;;;;;5013089;28;20426;-73
2021/12/30 06:05:17;;;;;;;3.60;1.13;;;;;;;;;;5013189;28;20425;-73
2021/12/30 06:07:43;;;;;;;1.83;0.97;;;;;;;;;;5013073;28;20810;-73
2021/12/30 06:10:10;;;;;;;3.87;1.53;;;;;;;;;;5012141;28;20440;-72
2021/12/30 06:12:36;;;;;;;5.17;1.40;;;;;;;;;;5012661;28;20441;-73
2021/12/30 06:15:02;;;;;;;3.90;1.00;;;;;;;;;;5013056;28;20405;-73
2021/12/30 06:17:28;;;;;;;2.93;1.13;;;;;;;;;;5013109;28;20428;-73
2021/12/30 06:19:54;;;;;;;2.37;1.10;;;;;;;;;;5009723;28;20426;-73
2021/12/30 06:22:20;;;;;;;1.97;0.90;;;;;;;;;;5008958;28;20426;-73
2021/12/30 06:24:46;;;;;;;5.30;1.50;;;;;;;;;;5009812;28;20500;-73
2021/12/30 06:27:12;;;;;;;3.00;1.30;;;;;;;;;;5009818;28;20466;-71
2021/12/30 06:29:38;;;;;;;4.27;1.00;;;;;;;;;;5012774;28;20694;-72
2021/12/30 06:32:05;;;;;;;8.10;1.57;;;;;;;;;;5012461;28;20416;-71
2021/12/30 06:34:31;;;;;;;8.07;2.27;;;;;;;;;;5012372;28;20437;-73
2021/12/30 06:36:57;;;;;;;13.60;2.27;;;;;;;;;;5012593;28;20547;-73
2021/12/30 06:39:23;;;;;;;3.97;1.60;;;;;;;;;;5014124;28;20411;-73
2021/12/30 06:41:49;;;;;;;2.10;1.17;;;;;;;;;;5012174;28;20925;-69
2021/12/30 06:44:15;;;;;;;14.37;2.53;;;;;;;;;;5012544;28;20430;-72
2021/12/30 06:46:53;;;;;;;6.07;1.70;;;;;;;;;;5012295;28;20464;-72
2021/12/30 06:49:19;;;;;;;10.60;1.87;;;;;;;;;;4992744;28;20438;-73
2021/12/30 06:51:45;;;;;;;11.23;2.10;;;;;;;;;;4992384;28;20509;-73
2021/12/30 06:54:12;;;;;;;8.80;1.70;;;;;;;;;;5005539;28;20438;-73
2021/12/30 06:56:39;;;;;;;8.03;1.77;;;;;;;;;;5012321;28;20429;-73
2021/12/30 06:59:05;;;;;;;10.10;1.60;;;;;;;;;;5012050;28;20413;-73
2021/12/30 07:01:31;;;;;;;5.33;1.80;;;;;;;;;;5012085;28;20422;-72
2021/12/30 07:03:58;;;;;;;5.83;1.70;;;;;;;;;;5011856;28;20456;-72
2021/12/30 07:06:24;;;;;;;1.30;0.90;;;;;;;;;;5012318;28;20464;-71
2021/12/30 07:08:50;;;;;;;3.10;2.03;;;;;;;;;;5012221;28;20425;-71
2021/12/30 07:11:16;;;;;;;8.30;1.10;;;;;;;;;;5011409;28;20941;-70
2021/12/30 07:13:42;;;;;;;3.93;1.10;;;;;;;;;;5010520;28;20449;-70
2021/12/30 07:16:08;;;;;;;9.03;1.80;;;;;;;;;;5012578;28;20420;-71
2021/12/30 07:18:35;;;;;;;4.50;1.60;;;;;;;;;;5006649;28;20406;-71
2021/12/30 07:21:01;;;;;;;1.50;1.00;;;;;;;;;;4993515;28;20418;-71
2021/12/30 07:23:27;;;;;;;6.97;1.33;;;;;;;;;;5005721;28;20441;-71
2021/12/30 07:25:53;;;;;;;2.93;1.80;;;;;;;;;;5005732;28;20488;-71
2021/12/30 07:28:19;;;;;;;2.17;1.20;;;;;;;;;;5011407;28;20425;-72
2021/12/30 07:30:45;;;;;;;5.27;1.30;;;;;;;;;;5011259;28;20973;-71
2021/12/30 07:33:11;;;;;;;3.63;1.40;;;;;;;;;;5012853;28;20441;-71
2021/12/30 07:35:37;;;;;;;1.97;1.03;;;;;;;;;;5011755;28;20424;-71
2021/12/30 07:38:04;;;;;;;5.53;1.43;;;;;;;;;;5007645;28;20414;-72
2021/12/30 07:40:31;;;;;;;3.73;0.90;;;;;;;;;;5010655;28;20424;-72
2021/12/30 07:42:57;;;;;;;1.77;1.10;;;;;;;;;;5010548;28;20477;-72
2021/12/30 07:45:23;;;;;;;1.30;1.00;;;;;;;;;;5011851;28;20416;-72
2021/12/30 07:47:50;;;;;;;4.70;1.60;;;;;;;;;;5011393;28;20509;-70
2021/12/30 07:50:16;;;;;;;10.70;1.67;;;;;;;;;;5011449;28;20413;-70
2021/12/30 07:52:43;;;;;;;3.37;1.20;;;;;;;;;;5011677;28;20465;-71
2021/12/30 07:55:10;;;;;;;2.73;1.20;;;;;;;;;;5011567;28;20743;-71
2021/12/30 07:57:38;;;;;;;4.40;1.30;;;;;;;;;;5011802;28;20522;-71
2021/12/30 08:00:06;;;;;;;6.40;1.77;;;;;;;;;;5011315;28;20409;-71
2021/12/30 08:02:32;;;;;;;2.73;1.30;;;;;;;;;;5011158;28;20420;-71
2021/12/30 08:04:58;;;;;;;5.97;1.30;;;;;;;;;;5011685;28;20409;-71
2021/12/30 08:07:24;;;;;;;4.40;1.17;;;;;;;;;;5011051;28;20461;-74
2021/12/30 08:09:51;;;;;;;3.20;1.50;;;;;;;;;;5011415;28;20918;-74
2021/12/30 08:12:17;;;;;;;4.33;1.20;;;;;;;;;;5010930;28;20556;-71
2021/12/30 08:14:43;;;;;;;5.83;1.73;;;;;;;;;;5011588;28;20451;-72
2021/12/30 08:17:09;;;;;;;4.37;1.70;;;;;;;;;;5011427;28;20413;-71
2021/12/30 08:19:35;;;;;;;1.00;0.53;;;;;;;;;;5011571;28;20516;-71
2021/12/30 08:22:02;;;;;;;1.63;0.90;;;;;;;;;;5011199;28;20417;-72
2021/12/30 08:24:29;;;;;;;1.77;0.90;;;;;;;;;;5011089;28;20491;-72
2021/12/30 08:26:55;;;;;;;4.00;0.90;;;;;;;;;;5015076;28;20472;-71
2021/12/30 08:29:21;;;;;;;2.20;1.00;;;;;;;;;;5015370;28;20418;-73
2021/12/30 08:31:48;;;;;;;6.23;1.63;;;;;;;;;;5014681;28;20410;-73
2021/12/30 08:34:14;;;;;;;17.70;1.83;;;;;;;;;;5015157;28;20503;-70
2021/12/30 08:36:40;;;;;;;6.57;0.93;;;;;;;;;;5014821;28;20409;-69
2021/12/30 08:39:06;;;;;;;6.50;1.77;;;;;;;;;;5014954;28;20432;-71
2021/12/30 08:41:32;;;;;;;7.87;1.33;;;;;;;;;;5014584;28;20421;-72
2021/12/30 08:43:58;;;;;;;4.53;1.23;;;;;;;;;;5014782;28;20442;-72
2021/12/30 08:46:24;;;;;;;5.30;1.90;;;;;;;;;;5014779;28;20864;-72
2021/12/30 08:48:50;;;;;;;1.60;0.90;;;;;;;;;;5014344;28;20406;-71
2021/12/30 08:51:16;;;;;;;5.87;1.63;;;;;;;;;;5014367;28;21004;-72
2021/12/30 08:53:42;;;;;;;10.53;1.60;;;;;;;;;;5014593;28;20429;-72
2021/12/30 08:56:11;;;;;;;3.83;1.00;;;;;;;;;;5014636;28;20496;-71
2021/12/30 08:58:37;;;;;;;6.50;1.50;;;;;;;;;;5014698;28;20758;-72
2021/12/30 09:01:03;;;;;;;6.13;1.80;;;;;;;;;;5013999;28;20418;-72
2021/12/30 09:03:29;;;;;;;3.60;1.63;;;;;;;;;;5014345;28;20588;-72
2021/12/30 09:05:55;;;;;;;2.80;1.60;;;;;;;;;;5014689;28;20550;-71
2021/12/30 09:08:21;;;;;;;3.13;1.23;;;;;;;;;;5014545;28;20897;-71
2021/12/30 09:10:49;;;;;;;3.20;1.03;;;;;;;;;;5013872;28;20426;-72
2021/12/30 09:13:15;;;;;;;2.33;0.80;;;;;;;;;;5014074;28;20785;-71
2021/12/30 09:15:42;;;;;;;4.67;1.80;;;;;;;;;;5014416;28;20420;-72
2021/12/30 09:18:08;;;;;;;3.23;1.63;;;;;;;;;;5014253;28;20906;-72
2021/12/30 09:20:35;;;;;;;3.17;1.50;;;;;;;;;;5013911;28;20496;-72
2021/12/30 09:23:03;;;;;;;4.30;1.50;;;;;;;;;;5014172;28;20513;-71
2021/12/30 09:25:29;;;;;;;17.67;1.90;;;;;;;;;;5013712;28;20456;-72
2021/12/30 09:27:55;;;;;;;10.77;2.10;;;;;;;;;;5014289;28;20484;-72
2021/12/30 09:30:21;;;;;;;1.47;0.93;;;;;;;;;;5013864;28;20961;-72
2021/12/30 09:32:48;;;;;;;5.90;1.57;;;;;;;;;;5013755;28;20433;-72
2021/12/30 09:35:14;;;;;;;4.67;1.60;;;;;;;;;;5014132;28;20481;-72
2021/12/30 09:37:40;;;;;;;4.20;1.40;;;;;;;;;;5013106;28;20410;-71
2021/12/30 09:40:13;;;;;;;3.50;1.50;;;;;;;;;;5013840;28;20913;-72
2021/12/30 09:42:40;;;;;;;9.60;1.67;;;;;;;;;;5013834;28;20483;-72
2021/12/30 09:45:06;;;;;;;2.77;1.10;;;;;;;;;;5012588;28;20500;-72
2021/12/30 09:47:33;;;;;;;3.83;1.40;;;;;;;;;;4993725;28;20461;-71
2021/12/30 09:49:59;;;;;;;5.43;1.37;;;;;;;;;;4992433;28;20422;-73
2021/12/30 09:52:26;;;;;;;8.40;1.23;;;;;;;;;;4991721;28;20498;-76
2021/12/30 09:54:52;;;;;;;8.93;1.80;;;;;;;;;;4993925;28;20430;-73
2021/12/30 09:57:19;;;;;;;4.03;1.27;;;;;;;;;;4994059;28;20472;-72
2021/12/30 09:59:44;;;;;;;11.70;1.33;;;;;;;;;;4994052;28;20414;-71
2021/12/30 10:02:11;;;;;;;5.57;1.47;;;;;;;;;;4993134;28;20425;-71
2021/12/30 10:04:37;;;;;;;6.13;1.70;;;;;;;;;;4993939;28;20445;-75
2021/12/30 10:07:17;;;;;;;4.87;1.50;;;;;;;;;;4993766;28;20827;-73
2021/12/30 10:09:52;;;;;;;6.73;1.93;;;;;;;;;;4994822;28;20806;-72
2021/12/30 10:12:44;;;;;;;10.13;1.70;;;;;;;;;;4993240;28;20410;-73
2021/12/30 10:15:10;;;;;;;9.60;0.80;;;;;;;;;;4993416;28;20414;-73
2021/12/30 10:17:36;;;;;;;4.53;1.20;;;;;;;;;;4993556;28;20414;-75
2021/12/30 10:20:20;;;;;;;2.90;1.00;;;;;;;;;;4993774;28;20418;-75
2021/12/30 10:22:47;;;;;;;7.00;1.33;;;;;;;;;;4993312;28;20484;-72
2021/12/30 10:25:26;;;;;;;2.43;0.97;;;;;;;;;;4993545;28;20921;-71
2021/12/30 10:27:53;;;;;;;2.70;1.30;;;;;;;;;;4993521;28;20468;-72
2021/12/30 10:30:35;;;;;;;16.40;1.60;;;;;;;;;;4992977;28;20419;-70
2021/12/30 10:33:11;;;;;;;2.50;1.00;;;;;;;;;;4993430;28;20434;-70
2021/12/30 10:35:38;;;;;;;3.13;1.23;;;;;;;;;;4993346;28;20418;-71
2021/12/30 10:38:09;;;;;;;2.60;1.17;;;;;;;;;;4992874;28;20895;-72
2021/12/30 10:40:36;;;;;;;3.67;1.23;;;;;;;;;;4993165;28;20425;-70
2021/12/30 10:43:25;;;;;;;4.70;1.10;;;;;;;;;;4993146;28;20423;-70
2021/12/30 10:46:04;;;;;;;2.67;1.23;;;;;;;;;;4992717;28;20430;-70
2021/12/30 10:48:30;;;;;;;2.23;1.17;;;;;;;;;;4992104;28;20737;-72
2021/12/30 10:51:17;;;;;;;2.40;1.17;;;;;;;;;;4992381;28;20403;-75
2021/12/30 10:53:43;;;;;;;1.43;0.90;;;;;;;;;;4992724;28;20422;-72
2021/12/30 10:56:19;;;;;;;4.50;1.10;;;;;;;;;;4993029;28;20775;-73
2021/12/30 10:58:45;;;;;;;1.70;1.07;;;;;;;;;;4993067;28;20418;-73
2021/12/30 11:01:15;;;;;;;2.10;1.27;;;;;;;;;;4992556;28;20505;-74
2021/12/30 11:03:42;;;;;;;2.27;1.10;;;;;;;;;;4992434;28;20426;-73
2021/12/30 11:06:17;;;;;;;1.70;0.93;;;;;;;;;;4992830;28;20466;-73
2021/12/30 11:08:43;;;;;;;4.93;1.27;;;;;;;;;;4992504;28;20442;-76
2021/12/30 11:11:25;;;;;;;1.70;0.77;;;;;;;;;;4994993;28;20643;-74
2021/12/30 11:14:11;;;;;;;1.93;1.10;;;;;;;;;;5011965;28;20464;-77
2021/12/30 11:16:58;;;;;;;1.83;0.93;;;;;;;;;;5011819;28;21029;-70
2021/12/30 11:19:26;;;;;;;1.40;1.03;;;;;;;;;;5012430;28;20476;-69
2021/12/30 11:21:52;;;;;;;1.90;1.00;;;;;;;;;;5011678;28;20952;-69
2021/12/30 11:24:18;;;;;;;1.27;0.70;;;;;;;;;;5011796;28;20444;-71
2021/12/30 11:26:45;;;;;;;1.40;0.87;;;;;;;;;;5011687;28;20544;-73
2021/12/30 11:29:11;;;;;;;1.47;0.80;;;;;;;;;;5012078;28;20413;-74
2021/12/30 11:31:37;;;;;;;3.93;1.00;;;;;;;;;;5011406;28;20515;-74
2021/12/30 11:34:04;;;;;;;1.10;0.77;;;;;;;;;;5011861;28;20434;-76
2021/12/30 11:36:30;;;;;;;2.23;0.90;;;;;;;;;;5011873;28;20902;-75
2021/12/30 11:38:57;;;;;;;1.90;1.00;;;;;;;;;;5011595;28;20418;-76
2021/12/30 11:41:25;;;;;;;1.57;0.90;;;;;;;;;;5011620;28;20444;-73
2021/12/30 11:43:51;;;;;;;1.70;0.80;;;;;;;;;;5011653;28;20916;-77
2021/12/30 11:46:36;;;;;;;1.37;0.73;;;;;;;;;;5011718;28;20461;-77
2021/12/30 11:49:02;;;;;;;1.80;0.93;;;;;;;;;;5011764;28;20910;-75
2021/12/30 11:51:41;;;;;;;1.57;0.80;;;;;;;;;;5011354;28;20429;-75
2021/12/30 11:54:26;;;;;;;1.70;0.90;;;;;;;;;;5011662;28;20421;-75
2021/12/30 11:57:10;;;;;;;1.10;0.63;;;;;;;;;;5011824;28;20406;-78
2021/12/30 11:59:39;;;;;;;3.50;0.87;;;;;;;;;;5011659;28;20409;-77
2021/12/30 12:02:24;;;;;;;1.50;0.83;;;;;;;;;;5015307;28;20409;-74
2021/12/30 12:04:50;;;;;;;1.53;0.90;;;;;;;;;;5015730;28;20413;-77
2021/12/30 12:07:16;;;;;;;2.17;0.83;;;;;;;;;;5015462;28;20461;-77
2021/12/30 12:09:43;;;;;;;1.47;0.70;;;;;;;;;;5015362;28;20429;-74
2021/12/30 12:12:10;;;;;;;1.70;0.80;;;;;;;;;;5015007;28;20421;-76
2021/12/30 12:14:44;;;;;;;2.47;0.80;;;;;;;;;;5014846;28;20460;-73
2021/12/30 12:17:12;;;;;;;1.20;0.80;;;;;;;;;;5015427;28;20417;-76
2021/12/30 12:19:38;;;;;;;7.90;0.90;;;;;;;;;;5015060;28;20413;-79
2021/12/30 12:22:05;;;;;;;2.03;0.60;;;;;;;;;;5014427;28;20898;-78
2021/12/30 12:24:34;;;;;;;2.53;0.87;;;;;;;;;;5014979;28;20440;-74
2021/12/30 12:27:02;;;;;;;1.20;0.83;;;;;;;;;;5014600;28;20464;-77
2021/12/30 12:29:29;;;;;;;11.90;1.00;;;;;;;;;;5014953;28;20910;-77
2021/12/30 12:32:07;;;;;;;2.33;0.70;;;;;;;;;;5014760;28;20774;-79
2021/12/30 12:34:41;;;;;;;1.37;0.87;;;;;;;;;;5015071;28;20441;-80
2021/12/30 12:37:27;;;;;;;1.40;0.70;;;;;;;;;;5014971;28;20498;-74
2021/12/30 12:39:57;;;;;;;1.80;0.80;;;;;;;;;;5014773;28;20405;-75
2021/12/30 12:42:43;;;;;;;2.10;0.90;;;;;;;;;;5014469;28;20424;-76
2021/12/30 12:45:16;;;;;;;1.20;0.70;;;;;;;;;;5004442;28;20413;-73
2021/12/30 12:47:42;;;;;;;1.30;0.60;;;;;;;;;;5014627;28;20465;-73
2021/12/30 12:50:09;;;;;;;1.47;1.03;;;;;;;;;;5014784;28;20420;-75
2021/12/30 12:52:42;;;;;;;1.57;0.90;;;;;;;;;;5014236;28;20553;-74
2021/12/30 12:55:09;;;;;;;1.33;0.90;;;;;;;;;;5014579;28;20417;-74
2021/12/30 12:57:35;;;;;;;1.20;0.70;;;;;;;;;;5014667;28;20445;-73
2021/12/30 13:00:01;;;;;;;1.50;0.70;;;;;;;;;;5014310;28;20891;-76
2021/12/30 13:02:27;;;;;;;1.70;0.90;;;;;;;;;;5014695;28;20453;-74
2021/12/30 13:05:06;;;;;;;3.53;0.93;;;;;;;;;;5012560;28;20429;-79
2021/12/30 13:07:34;;;;;;;1.60;1.00;;;;;;;;;;5014343;28;20452;-75
2021/12/30 13:10:00;;;;;;;1.77;0.87;;;;;;;;;;5015295;28;20425;-76
2021/12/30 13:12:27;;;;;;;2.40;1.00;;;;;;;;;;5013829;28;20402;-75
2021/12/30 13:14:53;;;;;;;1.43;0.87;;;;;;;;;;5013560;28;20481;-76
2021/12/30 13:17:19;;;;;;;1.20;0.70;;;;;;;;;;5014145;28;20433;-77
2021/12/30 13:19:46;;;;;;;3.73;1.30;;;;;;;;;;5015294;28;20417;-75
2021/12/30 13:22:13;;;;;;;4.27;1.67;;;;;;;;;;5013371;28;20929;-75
2021/12/30 13:24:43;;;;;;;18.63;3.50;;;;;;;;;;5015348;28;20420;-73
2021/12/30 13:27:15;;;;;;;9.73;3.70;;;;;;;;;;5013463;28;20459;-75
2021/12/30 13:29:49;;;;;;;13.13;4.10;;;;;;;;;;5013655;28;20438;-75
2021/12/30 13:32:16;;;;;;;13.87;2.73;;;;;;;;;;5013291;28;20416;-75
2021/12/30 13:35:05;;;;;;;14.27;4.43;;;;;;;;;;5013468;28;20419;-76
2021/12/30 13:37:33;;;;;;;17.43;5.27;;;;;;;;;;5013053;28;20436;-75
2021/12/30 13:40:00;;;;;;;2.27;1.57;;;;;;;;;;5012662;28;20467;-75
2021/12/30 13:42:29;;;;;;;3.47;1.67;;;;;;;;;;5013083;28;20441;-76
2021/12/30 13:44:56;;;;;;;19.07;4.40;;;;;;;;;;5013577;28;20752;-78
2021/12/30 13:47:22;;;;;;;15.57;2.53;;;;;;;;;;5010357;28;20818;-76
2021/12/30 13:49:50;;;;;;;2.93;1.57;;;;;;;;;;5005860;28;20421;-75
2021/12/30 13:52:16;;;;;;;23.07;5.73;;;;;;;;;;5012784;28;20825;-78
2021/12/30 13:54:43;;;;;;;22.60;5.30;;;;;;;;;;5013674;28;20903;-75
2021/12/30 13:57:09;;;;;;;18.80;4.70;;;;;;;;;;5013715;28;20417;-76
2021/12/30 13:59:36;;;;;;;19.63;4.60;;;;;;;;;;5013528;28;20422;-76
2021/12/30 14:02:12;;;;;;;6.57;2.57;;;;;;;;;;5013268;28;20460;-75
2021/12/30 14:04:39;;;;;;;22.57;4.37;;;;;;;;;;5013250;28;20932;-74
2021/12/30 14:07:05;;;;;;;12.77;3.53;;;;;;;;;;5013442;28;20544;-78
2021/12/30 14:09:32;;;;;;;15.80;3.53;;;;;;;;;;5013530;28;20758;-74
2021/12/30 14:12:02;;;;;;;25.10;4.10;;;;;;;;;;5012958;28;20409;-73
2021/12/30 14:14:31;;;;;;;12.50;2.93;;;;;;;;;;5013313;28;20417;-74
2021/12/30 14:16:58;;;;;;;11.07;3.10;;;;;;;;;;5013153;28;20495;-74
2021/12/30 14:19:28;;;;;;;11.70;2.43;;;;;;;;;;5013337;28;20413;-75
2021/12/30 14:21:54;;;;;;;10.27;2.67;;;;;;;;;;5012822;28;20421;-73
2021/12/30 14:24:22;;;;;;;12.27;3.03;;;;;;;;;;5012857;28;20806;-75
2021/12/30 14:26:50;;;;;;;16.20;4.27;;;;;;;;;;5013132;28;20468;-74
2021/12/30 14:29:20;;;;;;;15.57;2.90;;;;;;;;;;5012547;28;20445;-72
2021/12/30 14:31:58;;;;;;;10.83;2.40;;;;;;;;;;4996673;28;20457;-74
2021/12/30 14:34:25;;;;;;;7.23;2.47;;;;;;;;;;5012726;28;20999;-76
2021/12/30 14:36:54;;;;;;;9.27;2.27;;;;;;;;;;5013142;28;20754;-74
2021/12/30 14:39:23;;;;;;;7.93;2.20;;;;;;;;;;5013010;28;20421;-75
2021/12/30 14:41:49;;;;;;;8.17;2.40;;;;;;;;;;5012201;28;20851;-73
2021/12/30 14:44:16;;;;;;;15.80;3.07;;;;;;;;;;5012827;28;20495;-74
2021/12/30 14:46:59;;;;;;;10.87;2.60;;;;;;;;;;5012803;28;20457;-77